Sierra Nevada Aquatic Research Lab (SNARL) Reserve, Santa Monica Mtns, California Weather observations

Data are for 10 minute period ending at time listed.
 Day   Time   Solar   Ave.   Ave.  Ave.  Vector  Max.   Baro.   Total    
  of    of     Rad.   Air    Rel.  Wind   Wind   Wind  Press.  Precip.   
Year   Day            Temp.  Hum.  Speed  Dir.   Gust                    
2014   (PST)  Kw/m2    F      %     mph   deg.    mph    mb.     in.     
-------------------------------------------------------------------------
 293   22:10   0.00   52.6    16   14.3   224    21.9   781.5    0.00 
 293   22:20   0.00   52.4    17   14.1   224    25.1   781.6    0.00 
 293   22:30   0.00   52.4    17   14.5   234    30.8   781.5    0.00 
 293   22:40   0.00   52.4    17   18.2   231    35.0   781.6    0.00 
 293   22:50   0.00   52.2    18   17.6   230    25.2   781.6    0.00 
 293   23:00   0.00   52.2    18   18.3   225    28.4   781.4    0.00 
 293   23:10   0.00   52.3    18   21.7   223    37.2   781.4    0.00 
 293   23:20   0.00   51.7    19   18.2   228    31.7   781.3    0.00 
 293   23:30   0.00   52.0    16   21.0   217    32.2   781.1    0.00 
 293   23:40   0.00   52.9    12   27.5   204    46.5   781.0    0.00 
 293   23:50   0.00   53.2    10   29.7   201    51.3   780.9    0.00 
 294    0:00   0.00   53.4     9   28.0   202    40.6   780.9    0.00 
 294    0:10   0.00   53.2     8   25.7   204    44.9   781.1    0.00 
 294    0:20   0.00   53.2     8   29.2   204    46.5   781.0    0.00 
 294    0:30   0.00   53.2     8   30.5   210    44.6   781.0    0.00 
 294    0:40   0.00   52.9     8   24.3   211    42.9   781.2    0.00 
 294    0:50   0.00   52.5     7   19.1   199    35.5   781.4    0.00 
 294    1:00   0.00   49.6    17   10.4   128    23.7   781.7    0.00 
 294    1:10   0.00   45.3    29    8.0   118    15.2   782.1    0.00 
 294    1:20   0.00   46.1    24    7.1    71    18.3   782.4    0.00 
 294    1:30   0.00   44.7    25    3.7   206     8.5   782.4    0.00 
 294    1:40   0.00   42.1    25    5.5   229    11.5   782.1    0.00 
 294    1:50   0.00   46.9    18   10.8   240    21.8   782.0    0.00 
 294    2:00   0.00   49.4    16    5.3   242    14.2   782.2    0.00 
 294    2:10   0.00   47.8    26    8.2   303    15.9   782.6    0.00 
 294    2:20   0.00   45.0    35    6.1    50    11.8   782.9    0.00 
 294    2:30   0.00   43.4    36    3.5   216     6.8   782.8    0.00 
 294    2:40   0.00   41.3    37    4.9   241    11.2   782.5    0.00 
 294    2:50   0.00   40.2    36    4.4   290     8.0   782.3    0.00 
 294    3:00   0.00   41.7    36    6.5   284    11.7   782.5    0.00 
 294    3:10   0.00   41.1    39    3.3    66     8.1   782.8    0.00 
 294    3:20   0.00   38.3    43    4.4   219     7.7   782.8    0.00 
 294    3:30   0.00   37.4    43    7.2   223    11.6   782.7    0.00 
 294    3:40   0.00   37.7    45    4.7   273     9.9   782.5    0.00 
 294    3:50   0.00   36.5    46    6.2    86    10.3   782.7    0.00 
 294    4:00   0.00   37.4    48    3.2    74     8.3   782.8    0.00 
 294    4:10   0.00   35.7    48    2.8   216     5.3   783.0    0.00 
 294    4:20   0.00   32.7    54    4.4   174     7.2   783.1    0.00 
 294    4:30   0.00   31.8    56    2.0   192     4.3   783.0    0.00 
 294    4:40   0.00   31.9    57    0.9   206     3.2   782.9    0.00 
 294    4:50   0.00   30.8    57    1.5   226     7.5   782.9    0.00 
 294    5:00   0.00   30.0    58    2.4    53     7.5   783.1    0.00 
 294    5:10   0.00   29.4    60    2.7   298     5.3   783.0    0.00 
 294    5:20   0.00   29.2    60    2.1   321     4.9   782.9    0.00 
 294    5:30   0.00   30.2    64    2.3    16     5.6   782.9    0.00 
 294    5:40   0.00   33.2    62    2.9    37     6.3   782.9    0.00 
 294    5:50   0.00   33.7    62    5.2    78    11.0   782.9    0.00 
 294    6:00   0.00   33.0    64    2.6    44     6.4   782.9    0.00 
 294    6:10   0.00   33.2    64    2.2    58     4.0   783.3    0.00 
 294    6:20   0.00   31.3    63    3.2   229     4.5   783.5    0.00 
 294    6:30   0.01   30.1    65    2.5   294     4.3   783.6    0.00 
 294    6:40   0.06   32.1    62    3.0   327     6.6   783.6    0.00 
 294    6:50   0.08   34.7    58    3.3   274     5.9   783.7    0.00 
 294    7:00   0.14   36.9    54    2.2   356     4.7   783.8    0.00 
 294    7:10   0.17   40.0    49    2.2   185     4.9   784.0    0.00 
 294    7:20   0.22   42.9    43    1.5    95     2.6   784.0    0.00 
 294    7:30   0.24   45.6    39    1.4   109     4.7   784.2    0.00 
 294    7:40   0.22   47.3    36    2.0    74     3.9   784.2    0.00 
 294    7:50   0.25   47.4    38    1.7    67     2.7   784.3    0.00 
 294    8:00   0.28   49.4    34    1.5   109     3.6   784.2    0.00 
 294    8:10   0.35   50.8    33    2.5    93     5.8   784.1    0.00 
 294    8:20   0.37   51.1    33    5.0    74     9.5   783.9    0.00 
 294    8:30   0.39   49.9    32    6.3    88     8.8   783.9    0.00 
 294    8:40   0.43   50.3    31    5.9    82     9.1   783.7    0.00 
 294    8:50   0.46   51.6    28    5.0    89     8.1   783.5    0.00 
 294    9:00   0.49   53.3    27    5.2    80     8.9   783.5    0.00 
 294    9:10   0.52   53.5    26    3.4    70     7.2   783.6    0.00 
 294    9:20   0.53   54.3    27    4.8    75     8.0   783.7    0.00 
 294    9:30   0.46   54.5    26    4.3    67     8.6   783.7    0.00 
 294    9:40   0.48   55.0    25    4.6    67     9.5   783.7    0.00 
 294    9:50   0.59   56.1    22    4.8    84     7.0   783.7    0.00 
 294   10:00   0.59   57.3    18    4.4    88     7.1   783.7    0.00 
 294   10:10   0.51   56.9    17    4.6    80     8.6   783.8    0.00 
 294   10:20   0.52   57.2    13    6.7    98    10.7   783.6    0.00 
 294   10:30   0.64   58.3    10   10.0   110    13.3   783.4    0.00 
 294   10:40   0.64   59.3    10    7.7    94    12.6   783.4    0.00 
 294   10:50   0.57   58.9    10    8.1   119    12.2   783.4    0.00 
 294   11:00   0.70   60.0    10    8.4    99    13.7   783.5    0.00 
 294   11:10   0.70   60.3    10    6.7   116    12.1   783.4    0.00 
 294   11:20   0.70   60.3    10    5.1    76    12.2   783.4    0.00 
 294   11:30   0.70   61.1    10    5.1    84     8.7   783.3    0.00 
 294   11:40   0.72   61.8    10    5.1    60    11.8   783.3    0.00 
 294   11:50   0.72   61.9    10    5.8   100    12.3   783.3    0.00 
 294   12:00   0.72   62.4     9    4.3    91     8.3   783.2    0.00 
 294   12:10   0.71   62.9     9    5.5   124    10.7   783.0    0.00 
 294   12:20   0.71   63.1     9    8.7    96    14.4   782.7    0.00 
 294   12:30   0.69   63.5    10    6.4    88    12.6   782.7    0.00 
 294   12:40   0.69   63.7    10    3.0    83     5.8   782.6    0.00 
 294   12:50   0.69   64.8    11    3.9    48     8.8   782.6    0.00 
 294   13:00   0.68   64.8    13    5.2   348    11.0   782.5    0.00 
 294   13:10   0.64   65.2    13    6.4   314    14.3   782.4    0.00 
 294   13:20   0.63   66.1    13    8.9   282    15.9   782.4    0.00 
 294   13:30   0.61   65.2    13    9.5   289    18.4   782.3    0.00 
 294   13:40   0.59   65.8    14    8.4   282    19.6   782.2    0.00 
 294   13:50   0.58   65.1    15   11.7   284    21.0   782.2    0.00 
 294   14:00   0.51   64.4    16   11.8   282    18.3   782.1    0.00 
 294   14:10   0.50   64.0    16   11.0   272    17.3   782.1    0.00 
 294   14:20   0.49   64.0    17    9.8   291    16.9   782.1    0.00 
 294   14:30   0.43   64.2    17    9.0   284    16.1   782.2    0.00 
 294   14:40   0.41   64.4    17    8.6   278    18.7   782.2    0.00 
 294   14:50   0.39   64.2    18   10.2   266    17.8   782.2    0.00 
 294   15:00   0.34   63.8    18    8.3   292    14.5   782.1    0.00 
 294   15:10   0.34   63.7    18    8.7   272    19.8   782.1    0.00 
 294   15:20   0.22   62.7    20   10.3   259    16.1   782.2    0.00 
 294   15:30   0.24   62.4    20   10.4   269    18.7   782.3    0.00 
 294   15:40   0.24   62.0    21   10.1   264    14.8   782.3    0.00 
 294   15:50   0.21   61.8    21   10.4   274    17.5   782.3    0.00 
 294   16:00   0.15   61.3    23    9.4   272    16.7   782.3    0.00 
 294   16:10   0.14   60.9    23    7.2   278    12.3   782.3    0.00 
 294   16:20   0.03   59.5    25    8.9   262    14.2   782.2    0.00 
 294   16:30   0.03   58.1    26    6.3   252    10.9   782.1    0.00 
 294   16:40   0.01   57.5    27    6.6   251    10.0   782.0    0.00 
 294   16:50   0.01   57.0    28    5.5   266     9.5   781.9    0.00 
 294   17:00   0.01   56.6    29    7.5   267    12.0   781.8    0.00 
 294   17:10   0.01   54.5    26    8.2   294    12.8   781.9    0.00 
 294   17:20   0.00   53.1    26    7.1   300    12.5   781.9    0.00 
 294   17:30   0.00   51.6    26    6.4   291    10.6   782.0    0.00 
 294   17:40   0.00   51.1    27    7.1   278    11.9   782.0    0.00 
 294   17:50   0.00   50.6    27    8.2   283    14.2   782.2    0.00 
 294   18:00   0.00   50.9    28    7.5   278    13.5   782.4    0.00 
 294   18:10   0.00   50.9    28    6.5   276    11.3   782.5    0.00 
 294   18:20   0.00   50.2    27    4.5   268    10.8   782.6    0.00 
 294   18:30   0.00   48.5    30    3.3    82     7.7   782.7    0.00 
 294   18:40   0.00   49.1    29    3.6    40     8.8   782.9    0.00 
 294   18:50   0.00   48.9    28    2.2   351     5.1   782.9    0.00 
 294   19:00   0.00   46.4    31    1.8   203     3.3   783.0    0.00 
 294   19:10   0.00   44.3    34    2.1    31     4.2   783.1    0.00 
 294   19:20   0.00   41.6    35    2.1   204     3.9   783.1    0.00 
 294   19:30   0.00   41.4    36    2.3   229     4.5   783.1    0.00 
 294   19:40   0.00   41.1    38    1.5   140     2.9   783.2    0.00 
 294   19:50   0.00   40.0    39    4.1   227     6.2   783.4    0.00 
 294   20:00   0.00   40.2    38    4.4   234     5.8   783.5    0.00 
 294   20:10   0.00   41.0    35    2.8   251     6.0   783.5    0.00 
 294   20:20   0.00   40.9    36    0.6   208     2.2   783.8    0.00 
 294   20:30   0.00   39.3    38    1.3   241     2.9   783.8    0.00 
 294   20:40   0.00   38.8    38    2.9   250     5.0   783.9    0.00 
 294   20:50   0.00   38.0    40    2.4   258     3.6   784.0    0.00 
 294   21:00   0.00   37.2    38    3.1   213     5.9   784.0    0.00 
 294   21:10   0.00   36.2    39    1.1   228     3.3   784.1    0.00 
 294   21:20   0.00   35.4    41    1.2   194     2.9   784.2    0.00 
 294   21:30   0.00   35.5    41    1.9   257     5.2   784.1    0.00 
 294   21:40   0.00   34.9    42    2.8   281     5.6   784.1    0.00 
 294   21:50   0.00   34.5    44    3.1   259     6.4   784.1    0.00 
 294   22:00   0.00   34.4    44    2.6   244     6.6   784.2    0.00 

Return to SNARL Reserve graphs page.


Western Regional Climate Center,wrcc@dri.edu